Warning: Javascript must be enabled to use all the features on this page!


Page Loading - Please Wait...

* We've detected you're using a mobile device. Find our Next Generation Station Page here.
Click to hideNews Bulletins

Peak Streamflow for the Nation

USGS 12147600 SOUTH FORK TOLT RIVER NEAR INDEX, WA

King County, Washington
Hydrologic Unit Code 17110010
Latitude  47°42'25", Longitude 121°35'56" NAD27
Drainage area 5.34  square miles
Gage datum 1,850 feet above NGVD29
Output formats
Table
Graph
Tab-separated file
peakfq (watstore) format
Reselect output format
Water
Year
Date Gage
Height
(feet)
Stream-
flow
(cfs)
1960 1959-12-14 6.28 1,780
1961 1961-02-21 5.90 1,560
1962 1962-01-03 5.31 842
1963 1962-11-19 7.00 1,880
1968 1968-01-20 5.77 1,180
1969 1969-01-04 6.79 1,750
1970 1970-04-09 4.77 758
1971 1971-01-19 5.59 1,100
1972 1971-11-03 6.24 1,420
1973 1972-12-26 5.23 952
1974 1974-01-15 4.98 853
1975 1975-01-18 5.20 940
1976 1975-12-02 5.63 1,120
1977 1977-01-18 4.04 565
1978 1977-11-25 5.41 1,020
1979 1979-01-20 3.99 552
1980 1979-12-14 5.16 924
1981 1980-12-26 4.94 1,800
1982 1982-01-23 5.16 2,190
1983 1983-01-05 4.15 1,180
1984 1984-01-25 4.64 1,620
1985 1985-04-27 3.39 665
1986 1985-11-01 4.65 1,630
1987 1986-11-23 6.46 2,140
1988 1987-12-09 4.25 995
1989 1988-10-16 5.16 1,440
1990 1990-01-09 4.77 1,250
1991 1990-11-09 5.05 1,390
1992 1992-01-24 3.53 670
1993 1993-01-25 6.06 1,290
1994 1993-11-21 3.51 361
1995 1995-02-19 4.97 831
1996 1995-11-28 5.50 1,060
1997 1997-03-19 3.71 413
1998 1997-10-30 3.56 979
1999 1999-01-14 4.11 1,550
2000 1999-12-15 4.54 2,2409
2001 2001-03-19 3.34 678
2002 2002-02-22 3.84 1,210
2003 2003-01-31 4.00 1,400
2004 2003-11-18 4.51 2,190
2005 2005-01-18 4.38 1,960
2006 2005-12-24 3.63 981
2007 2006-11-06 4.48 2,130
2008 2007-12-03 3.59 991
2009 2008-11-12 4.392 1,980
2010 2009-10-23 3.41 556
2011 2010-12-12 4.22 1,710
2012 2011-12-28 3.58 933
2013 2013-04-05 3.41 782
2014 2014-03-09 4.12 1,560
2015 2015-01-05 4.93 1,710
2016 2015-12-08 4.65 1,550
2017 2016-10-08 3.98 1,160
2018 2017-10-21 4.26 1,320
2019 2018-11-02 4.46 1,450
2020 2020-02-01 4.56 1,510
2021 2020-11-05 3.502 913
2022 2022-02-28 4.43 1,230
2023 2022-11-04 4.60 1,350
?
  Peak Gage-Height Qualification Codes.
?
  Peak Streamflow Qualification Codes.